NWS Home NWS Lubbock West Texas Mesonet Three hour changes as of 0213 AM, Thu May 13, 2021

Latest   N   C   S   Daily Sum   3hrΔ   24hrΔ   Soil Data 
Site Map   24hr Precip   72hr Precip   Google Plot


Station Time of Last Temp Now Temp 3h ago Delta-T Dewpoint Now Dewpoint 3hr ago Delta-Td 3hr Press Change (mB)
Reese Center  02:05 AM 51.7 57.4 -5.7 45.7 40.9 4.8 1
Abernathy  02:05 AM 48.1 54 -5.9 43.8 40.1 3.6 1.1
Plainview  02:05 AM 46.6 52.9 -6.3 41.6 38.7 2.9 1.2
Tahoka  02:05 AM 50.1 55.1 -5.1 46.6 45.2 1.4 0.9
Slaton  02:05 AM 49.8 55.2 -5.4 47.1 45.3 1.8 0.7
Levelland  02:05 AM 51.1 56.5 -5.4 44.8 42 2.8 0.7
Roaring Springs  02:05 AM 47.4 52.6 -5.2 45 45.4 -0.4 0.5
Floydada  02:05 AM 44.7 49.2 -4.5 42 41.3 0.7 0.8
Ralls  02:05 AM 46.3 53.7 -7.4 42.1 43.8 -1.7 0.6
Brownfield  02:05 AM 50.9 56.5 -5.6 47.4 46.3 1 0.8
Muleshoe  02:05 AM 44.7 53.7 -9 38.4 40.2 -1.7 0.8
Morton  02:05 AM 50.3 56.7 -6.4 43.1 41.6 1.5 0.8
Comanche Springs  02:05 AM 43.9 54.1 -10.1 43.2 49.3 -6.1 0.4
O'Donnell  02:05 AM 50.8 56 -5.2 47.8 46.6 1.2 0.9
Seagraves  02:05 AM 51.8 57.1 -5.3 47.9 47.6 0.3 0.8
Amherst  02:05 AM 48.8 54.5 -5.7 42.6 38.9 3.7 0.9
Plains  02:05 AM 51.8 56.8 -5 45.7 45.9 -0.2 0.8
Lamesa  02:05 AM 51.3 57.3 -6 45.9 45.6 0.4 0.7
Hart  02:05 AM 45.1 51.1 -5.9 40.3 40 0.3 1.3
Friona  02:05 AM 46.1 49.6 -3.5 39.7 40.3 -0.6 1
Dimmitt  02:05 AM 45.2 49 -3.8 39.8 39.8 0.1 1.2
Tulia  02:05 AM 44 49.1 -5.2 39 39.2 -0.2 1.2
Silverton  02:05 AM 43.6 50.1 -6.5 41.1 41.2 -0.1 0.7
Post  02:05 AM 50.5 55.6 -5 48.2 47.8 0.4 0.5
Seminole  02:05 AM 51.8 57.3 -5.5 47.1 47 0.2 0.8
Gail  02:05 AM 50.2 56.1 -5.9 46.6 46.9 -0.3 0.5
White River Lake  02:05 AM 50.4 54.7 -4.3 48.1 47 1 0.5
Graham  02:05 AM 51.4 55.5 -4.2 47.3 46.8 0.5 0.6
Sundown  02:05 AM 50.2 54.2 -4 44.2 43.3 1 0.8
Anton  02:05 AM 50.4 55.4 -5 43.5 38.9 4.6 1
Fluvanna  02:05 AM 48.1 53.7 -5.6 44.9 45.8 -0.9 0.6
Spur  02:05 AM 49.8 55.9 -6.1 47.3 47.2 0.1 0.6
Northwest Lubbock  02:05 AM 51.6 57.5 -5.9 46.2 42.2 4.1 1.1
Guthrie  02:05 AM 49.3 54.8 -5.5 48.1 47.8 0.2 0.5
Clarendon  02:05 AM 46.2 55.6 -9.4 41 41.6 -0.6 0.8
Paducah  02:05 AM 51.3 53.1 -1.8 49 46.7 2.3 0.5
Snyder  02:05 AM 50.2 52.6 -2.4 46.9 47.5 -0.5 0.2
Memphis  02:05 AM 48.4 55.7 -7.2 41.2 42.2 -0.9 0.8
Jayton  02:05 AM 51.2 53.7 -2.5 49.6 49.6 0.1 0.4
Pampa  02:05 AM 44.5 51.7 -7.2 40.9 42.6 -1.7 0.4
Aspermont  02:05 AM 46.7 51.9 -5.2 46.4 50.6 -4.2 -0
Hereford  02:05 AM 47.8 51.1 -3.3 40.2 40.3 -0.1 1.3
Goodlett  02:05 AM 49 54.4 -5.3 44.9 45.2 -0.3 0.4
McLean  02:05 AM 48.3 53.7 -5.3 41.7 42.6 -1 0.3
Denver City  02:05 AM 51.2 56.8 -5.6 46.9 46.9 0 0.7
Lake Alan Henry  02:05 AM 50.7 55 -4.2 48.3 48.5 -0.2 0.6
Wolfforth  02:05 AM 49 54.4 -5.4 44.8 43 1.8 1
Andrews  02:05 AM 53.2 59.6 -6.4 47.5 46.7 0.8 1.1
Turkey  02:05 AM 50.7 53.6 -2.9 43.2 42.1 1.1 0.8
Childress  02:05 AM 51.3 53 -1.7 45.2 43.8 1.4 0.6
Tatum  02:05 AM 51 55.8 -4.8 44.4 45.6 -1.1 0.7
Northfield  02:05 AM 48.1 53.1 -5 44.1 42.7 1.4 0.8
Dora  02:05 AM 49.6 56.2 -6.6 42.3 42.5 -0.2 0.5
Northwest San Angelo  02:05 AM 57.8 58.9 -1.1 49 49.1 -0.1 0
Saint Lawrence  02:05 AM 53.1 57.2 -4.1 48 48.1 -0 0.1
Haskell  02:05 AM 54.6 58.2 -3.7 52.3 53 -0.6 -0.1
Wall  02:05 AM 57.5 58.9 -1.3 50.8 49.8 1 0.1
Seymour  02:05 AM 56.9 59 -2.1 53.7 53.6 0.1 0.2
Knox City  02:05 AM 49.4 53.9 -4.4 48.6 51.7 -3.1 0.2
Guadalupe Mtns Park  02:05 AM 51 51.7 -0.7 44.1 45.6 -1.5 0.3
Caprock Canyons   02:05 AM 48.3 52.7 -4.4 43.2 41.7 1.4 0.8
Odell  02:05 AM 47.8 54.6 -6.8 45.9 49.2 -3.3 0.6
Coyanosa  02:05 AM 58.6 65.2 -6.6 48.1 45.7 2.4 1
Big Lake  02:05 AM 54 57 -2.9 49 48.9 0.1 -0.1
Junction  02:05 AM 57.5 58.6 -1.2 51.3 51.6 -0.3 0.6
Hobbs  02:05 AM 52 56.8 -4.9 45.4 46 -0.6 0.6
Canadian  02:05 AM 43.6 51.5 -7.9 40.4 43.3 -2.9 0.1
Palo Duro Canyon State Park Rim  02:05 AM 48.4 51.8 -3.4 39.8 38.8 1 1.1
Bootleg  02:05 AM 42.7 45.9 -3.3 40 42.6 -2.6 0.9
Sterling City  02:05 AM 49.4 55.9 -6.5 49.4 47.5 2 0.1
Mertzon  02:05 AM 55.3 58.2 -2.9 50.3 50.7 -0.4 -0.1
Persimmon Gap  02:05 AM 64.7 65.2 -0.5 48.7 48.7 0 -0.2
Weinert  02:05 AM 54.9 57.4 -2.5 52.4 53.2 -0.8 -0.1
Claude 12 Southwest  02:05 AM 44.5 49.2 -4.7 40.2 41.1 -1 1
Amarillo 7 South Southeast  02:05 AM 41 45.7 -4.7 40.5 39.1 1.5 1.1
Umbarger  02:05 AM 43.6 47.1 -3.5 39.5 39.9 -0.3 1.2
Lomax  02:05 AM 50.3 57.6 -7.3 46.6 47.7 -1 0.2
Amarillo 9 North Northeast  02:05 AM 46.6 50.4 -3.8 40.6 40.3 0.2 1.1
Aiken  02:05 AM 44.6 52.9 -8.3 40.7 40.8 -0.1 1.1
Sweetwater  02:05 AM 51.4 50.3 1.1 48.8 47.8 1 -0.2
Dozier  02:05 AM 48.6 56.7 -8.1 43.1 44.6 -1.5 0.4
Amarillo 15 North Northwest  02:05 AM 46.5 51.3 -4.7 39.5 39.5 0 1.2
Menard  02:05 AM 56.3 57.2 -0.9 51.7 51.2 0.5 0.1
Tarzan  02:05 AM 52.5 57.7 -5.2 47.2 47.9 -0.7 0.5
Goodnight  02:05 AM 45.6 50.7 -5.1 41 41.8 -0.9 0.7
Boys Ranch   02:05 AM 45.7 49.4 -3.7 40.2 39.5 0.7 1.2
Fort McKavett  02:05 AM 56 56 0 51.3 51.2 0.1 0.2
Fort Chadbourne  02:05 AM 56.8 57.2 -0.5 53 52.7 0.3 0.1
Palo Duro Canyon State Park Floor  02:05 AM 49.2 54.4 -5.2 41.2 40.4 0.8 1.3
Fort Lancaster  02:05 AM 59.1 63.9 -4.8 51.2 52.3 -1.1 1.1
Dell City 1N  02:05 AM 51.9 58.9 -7.1 46.3 48.6 -2.3 0.2
Clyde  02:05 AM 55.6 56.3 -0.6 51.6 52.9 -1.3 -0.1
Snyder SSW  02:05 AM 48.5 52.3 -3.7 48.5 48 0.6 0.4
Panhandle  02:05 AM 42.4 48.1 -5.7 40.7 42.4 -1.7 0.8
Vigo Park  02:05 AM 42.8 49.3 -6.5 39.8 40.2 -0.4 1
Welch  02:05 AM 50.1 55.8 -5.6 50.1 47.9 2.3 0.9
Throckmorton  02:05 AM 57.3 58.5 -1.2 54.9 54.6 0.3 -0.2
Sierra Blanca  02:05 AM 53.9 57.9 -4 47.6 48 -0.4 0.2
Fort Lewis CO  02:05 AM 34.6 40.7 -6.1 11.9 12.7 -0.8 0.4
New Home  02:05 AM 49.4 54.5 -5.1 47.4 45 2.4 1
McCamey  02:05 AM 56.8 63.6 -6.8 49 50 -1 0.6
Stamford  02:05 AM 57.2 58.6 -1.5 54.6 54.4 0.1 -0.2
Crowell  02:05 AM 52.3 56 -3.7 50.3 51.4 -1.1 0.3
Stinnett  02:05 AM 47.5 49.6 -2.1 39.7 40.2 -0.5 0.7
Colorado City  02:05 AM 47.9 52.9 -5.1 46.3 48.7 -2.4 0.2
Happy  02:05 AM 41.6 48.8 -7.3 38.6 41 -2.4 1.3
Endee  02:05 AM 46.7 51.1 -4.3 40.4 41.9 -1.5 1.2
JA Ranch  02:05 AM 42.2 54.4 -12.2 40 42.1 -2.1 0.8
Adrian  02:05 AM 44.9 48.1 -3.2 38.8 40.2 -1.4 1.2
Lesley  02:00 AM 51 55.4 -4.4 42.1 41.8 0.3 0.9
Earth  02:05 AM 48.1 52.8 -4.7 40.7 39.8 0.9 0.9
Van Horn  02:05 AM 55.7 58.3 -2.6 47.2 48.3 -1.1 0.2
Rotan  02:05 AM 51.1 53.9 -2.8 49 49.7 -0.7 0
Fritch  02:05 AM 47.5 53 -5.5 39.6 39.9 -0.4 1.1
Estelline  02:05 AM 48.1 55.8 -7.7 43 43.5 -0.5 1
Crane  02:05 AM 56.3 64.7 -8.4 48 48.2 -0.2 0.8
Hackberry  02:05 AM 50.7 54.4 -3.7 49.3 48.5 0.9 0.4
Romero 11SSW  02:05 AM 48.1 44.7 3.4 41.4 39.7 1.7 1.1
Palo Duro Reservoir 1NW  02:05 AM 49.3 53 -3.8 40.7 41.8 -1.1 0.2
South Plains 3ENE  02:05 AM 43.1 51.7 -8.6 41.6 41.8 -0.2 0.8
Lake McClellan 2NW  02:05 AM 48 53.5 -5.5 41.1 42 -0.9 0.6
Segovia 7SSW  02:05 AM 55.6 56.8 -1.2 50.7 50.4 0.3 0.6
Castolon 1NW BBNP  02:05 AM 66.2 69.6 -3.4 50.8 51.6 -0.8 0.4
Smyer  02:05 AM 50.7 56.4 -5.7 44.3 41 3.3 1
Doole 3WNW  02:05 AM 56.5 58.2 -1.7 52.3 52.6 -0.3 0
Stratford  02:05 AM 45.7 45.5 0.2 41.3 40.2 1.1 0.5
Truscott  02:05 AM 49.7 54.7 -5 48.3 51.6 -3.2 0.2
Hefner  02:05 AM 56.9 56 0.8 53.7 53.2 0.5 0
Kent I10-I20 Split  02:05 AM 58.1 58.1 0 48.8 49 -0.1 0.1
Olton  02:05 AM 44.2 53 -8.7 40.3 39.2 1.2 1.2
McAdoo  02:05 AM 46.3 52 -5.7 44.7 44.8 -0.1 0.5
Borger  02:05 AM 45.5 52.2 -6.7 40.8 41.4 -0.5 0.6
Vega  02:05 AM 44.9 48.6 -3.8 39.2 39.6 -0.4 1.1
Wellington  02:05 AM 48.8 55.5 -6.7 41.8 42.9 -1.1 0.5
Lubbock 4SE  02:05 AM 49.9 55.2 -5.3 45.7 41.9 3.9 1

West Texas Mesonet Home   Site Map/Menu  NWS Lubbock Soil Data  Daily Summary Page  24hr Precip  72hr Precip  Google Plot